createdAt,value
2019-02-15T00:00:47.317Z,13.20
2019-02-15T00:03:15.593Z,11.53
2019-02-15T00:05:43.808Z,9.67
2019-02-15T00:08:12.084Z,9.70
2019-02-15T00:10:40.311Z,9.87
2019-02-15T00:13:13.714Z,9.10
2019-02-15T00:15:38.436Z,9.27
2019-02-15T00:18:11.364Z,9.80
2019-02-15T00:20:41.241Z,10.03
2019-02-15T00:23:09.513Z,9.37
2019-02-15T00:25:37.757Z,8.97
2019-02-15T00:28:06.028Z,9.30
2019-02-15T00:30:34.309Z,9.27
2019-02-15T00:33:02.571Z,9.27
2019-02-15T00:35:30.813Z,9.70
2019-02-15T00:37:59.093Z,9.33
2019-02-15T00:40:27.325Z,10.37
2019-02-15T00:42:55.576Z,11.37
2019-02-15T00:45:25.451Z,10.00
2019-02-15T00:48:11.754Z,10.17
2019-02-15T00:50:50.287Z,9.83
2019-02-15T00:53:25.714Z,9.27
2019-02-15T00:56:11.725Z,9.80
2019-02-15T00:58:47.684Z,9.37
2019-02-15T01:01:17.559Z,9.00
2019-02-15T01:03:50.266Z,9.93
2019-02-15T01:06:36.653Z,8.83
2019-02-15T01:09:12.993Z,10.07
2019-02-15T01:11:45.973Z,8.93
2019-02-15T01:14:14.233Z,10.03
2019-02-15T01:16:42.458Z,9.53
2019-02-15T01:19:10.730Z,9.90
2019-02-15T01:21:38.958Z,9.67
2019-02-15T01:24:07.208Z,9.87
2019-02-15T01:26:40.068Z,9.07
2019-02-15T01:29:09.970Z,10.87
2019-02-15T01:31:42.897Z,9.00
2019-02-15T01:34:12.794Z,9.80
2019-02-15T01:36:42.656Z,9.83
2019-02-15T01:39:12.613Z,9.37
2019-02-15T01:41:45.453Z,9.87
2019-02-15T01:44:15.349Z,9.77
2019-02-15T01:46:45.234Z,9.37
2019-02-15T01:49:13.511Z,9.70
2019-02-15T01:51:41.721Z,9.03
2019-02-15T01:54:09.974Z,9.40
2019-02-15T01:56:38.201Z,10.53
2019-02-15T01:59:06.456Z,8.90
2019-02-15T02:01:34.669Z,9.43
2019-02-15T02:04:03.189Z,8.93
2019-02-15T02:06:31.445Z,10.23
2019-02-15T02:08:59.669Z,9.73
2019-02-15T02:11:28.017Z,9.53
2019-02-15T02:13:56.239Z,9.93
2019-02-15T02:16:24.517Z,10.83
2019-02-15T02:18:52.729Z,9.80
2019-02-15T02:21:20.990Z,9.93
2019-02-15T02:23:49.205Z,10.27
2019-02-15T02:26:17.490Z,10.87
2019-02-15T02:28:45.710Z,10.47
2019-02-15T02:31:13.973Z,10.23
2019-02-15T02:33:42.195Z,10.53
2019-02-15T02:36:10.479Z,11.40
2019-02-15T02:38:38.725Z,11.27
2019-02-15T02:41:06.977Z,11.00
2019-02-15T02:43:35.229Z,10.37
2019-02-15T02:46:03.493Z,10.50
2019-02-15T02:48:31.746Z,11.20
2019-02-15T02:50:59.993Z,11.43
2019-02-15T02:53:28.227Z,11.10
2019-02-15T02:55:56.470Z,10.70
2019-02-15T02:58:24.693Z,11.40
2019-02-15T03:00:52.946Z,11.47
2019-02-15T03:03:21.168Z,10.53
2019-02-15T03:05:49.423Z,11.63
2019-02-15T03:08:17.645Z,11.07
2019-02-15T03:10:45.896Z,13.53
2019-02-15T03:13:14.120Z,12.40
2019-02-15T03:15:42.372Z,11.83
2019-02-15T03:18:10.597Z,11.27
2019-02-15T03:20:38.848Z,11.47
2019-02-15T03:23:07.073Z,11.70
2019-02-15T03:25:35.343Z,11.90
2019-02-15T03:28:03.571Z,10.93
2019-02-15T03:30:31.809Z,11.33
2019-02-15T03:33:00.055Z,12.37
2019-02-15T03:35:28.268Z,11.50
2019-02-15T03:38:01.102Z,9.83
2019-02-15T03:40:30.966Z,11.20
2019-02-15T03:42:59.222Z,11.33
2019-02-15T03:45:27.456Z,11.47
2019-02-15T03:47:55.706Z,11.67
2019-02-15T03:50:23.925Z,10.60
2019-02-15T03:52:52.177Z,11.43
2019-02-15T03:55:20.393Z,12.00
2019-02-15T03:57:48.649Z,11.93
2019-02-15T04:00:16.874Z,11.17
2019-02-15T04:02:45.189Z,11.73
2019-02-15T04:05:13.416Z,11.53
2019-02-15T04:07:41.669Z,11.47
2019-02-15T04:10:09.963Z,12.10
2019-02-15T04:12:38.213Z,12.40
2019-02-15T04:15:07.001Z,12.53
2019-02-15T04:17:35.254Z,12.77
2019-02-15T04:20:03.742Z,13.33
2019-02-15T04:22:31.992Z,11.43
2019-02-15T04:25:00.280Z,12.10
2019-02-15T04:27:28.568Z,12.57
2019-02-15T04:29:56.797Z,12.27
2019-02-15T04:32:25.116Z,12.33
2019-02-15T04:34:53.346Z,12.40
2019-02-15T04:37:21.604Z,11.00
2019-02-15T04:39:49.817Z,11.10
2019-02-15T04:42:18.128Z,12.20
2019-02-15T04:44:46.301Z,13.03
2019-02-15T04:47:14.557Z,12.30
2019-02-15T04:49:42.792Z,13.23
2019-02-15T04:52:11.039Z,12.30
2019-02-15T04:54:39.265Z,12.70
2019-02-15T04:57:07.489Z,13.57
2019-02-15T04:59:35.740Z,12.40
2019-02-15T05:02:03.965Z,12.87
2019-02-15T05:04:32.223Z,14.13
2019-02-15T05:07:00.443Z,12.63
2019-02-15T05:09:28.701Z,13.27
2019-02-15T05:11:56.921Z,13.97
2019-02-15T05:14:25.184Z,13.30
2019-02-15T05:16:53.408Z,12.00
2019-02-15T05:19:21.672Z,13.27
2019-02-15T05:21:49.895Z,13.67
2019-02-15T05:24:18.144Z,12.53
2019-02-15T05:26:46.368Z,12.00
2019-02-15T05:29:14.629Z,12.70
2019-02-15T05:31:42.847Z,14.23
2019-02-15T05:34:11.107Z,13.43
2019-02-15T05:36:39.327Z,12.30
2019-02-15T05:39:07.956Z,12.73
2019-02-15T05:41:36.184Z,12.77
2019-02-15T05:44:04.440Z,12.77
2019-02-15T05:46:32.668Z,13.27
2019-02-15T05:49:00.920Z,13.50
2019-02-15T05:51:29.145Z,12.17
2019-02-15T05:53:57.409Z,14.77
2019-02-15T05:56:25.627Z,13.33
2019-02-15T05:58:53.884Z,13.90
2019-02-15T06:01:23.479Z,13.80
2019-02-15T06:03:51.733Z,13.00
2019-02-15T06:06:19.957Z,12.53
2019-02-15T06:08:48.184Z,12.60
2019-02-15T06:11:16.453Z,13.27
2019-02-15T06:13:44.672Z,13.60
2019-02-15T06:16:12.928Z,12.70
2019-02-15T06:18:41.143Z,13.40
2019-02-15T06:21:09.469Z,12.13
2019-02-15T06:23:37.684Z,12.80
2019-02-15T06:26:05.949Z,13.23
2019-02-15T06:28:34.160Z,11.47
2019-02-15T06:31:02.412Z,12.60
2019-02-15T06:33:30.647Z,11.80
2019-02-15T06:35:58.908Z,12.27
2019-02-15T06:38:34.630Z,12.37
2019-02-15T06:40:57.061Z,11.77
2019-02-15T06:43:25.252Z,12.40
2019-02-15T06:45:53.605Z,11.80
2019-02-15T06:48:21.832Z,12.83
2019-02-15T06:50:50.084Z,13.03
2019-02-15T06:53:18.314Z,14.63
2019-02-15T06:55:46.556Z,14.20
2019-02-15T06:58:14.787Z,14.90
2019-02-15T07:00:50.748Z,13.57
2019-02-15T07:03:20.621Z,14.10
2019-02-15T07:05:48.872Z,15.77
2019-02-15T07:08:17.102Z,13.70
2019-02-15T07:10:45.349Z,14.20
2019-02-15T07:13:13.582Z,13.63
2019-02-15T07:15:41.837Z,14.27
2019-02-15T07:18:10.061Z,13.27
2019-02-15T07:20:38.316Z,12.53
2019-02-15T07:23:06.546Z,14.33
2019-02-15T07:25:34.771Z,12.50
2019-02-15T07:28:03.097Z,12.50
2019-02-15T07:30:31.320Z,14.37
2019-02-15T07:32:59.569Z,13.27
2019-02-15T07:35:27.797Z,13.13
2019-02-15T07:37:56.057Z,13.53
2019-02-15T07:40:24.351Z,12.50
2019-02-15T07:42:52.626Z,12.03
2019-02-15T07:45:22.644Z,11.83
2019-02-15T07:47:50.732Z,13.90
2019-02-15T07:50:18.957Z,14.33
2019-02-15T07:52:47.218Z,13.30
2019-02-15T07:55:15.436Z,13.87
2019-02-15T07:57:43.756Z,14.43
2019-02-15T08:00:13.326Z,14.33
2019-02-15T08:02:41.568Z,14.43
2019-02-15T08:05:10.362Z,13.10
2019-02-15T08:07:38.616Z,14.40
2019-02-15T08:10:08.218Z,15.93
2019-02-15T08:12:36.473Z,15.80
2019-02-15T08:15:05.768Z,15.00
2019-02-15T08:17:34.016Z,15.67
2019-02-15T08:20:02.245Z,12.17
2019-02-15T08:22:30.492Z,15.13
2019-02-15T08:24:58.719Z,14.50
2019-02-15T08:27:26.981Z,12.70
2019-02-15T08:29:55.200Z,15.07
2019-02-15T08:32:23.462Z,15.57
2019-02-15T08:34:51.684Z,15.10
2019-02-15T08:37:19.910Z,15.37
2019-02-15T08:39:48.156Z,15.70
2019-02-15T08:42:16.380Z,15.43
2019-02-15T08:44:44.638Z,15.97
2019-02-15T08:47:12.856Z,16.80
2019-02-15T08:49:41.189Z,15.93
2019-02-15T08:52:09.433Z,16.03
2019-02-15T08:54:37.660Z,16.03
2019-02-15T08:57:05.896Z,16.00
2019-02-15T08:59:34.148Z,16.63
2019-02-15T09:02:04.023Z,16.37
2019-02-15T09:04:32.405Z,17.03
2019-02-15T09:07:00.628Z,17.20
2019-02-15T09:09:28.881Z,17.27
2019-02-15T09:11:57.105Z,18.10
2019-02-15T09:14:25.362Z,17.57
2019-02-15T09:16:53.585Z,16.87
2019-02-15T09:19:21.839Z,17.77
2019-02-15T09:21:50.065Z,17.33
2019-02-15T09:24:18.325Z,18.17
2019-02-15T09:26:46.550Z,18.20
2019-02-15T09:29:14.806Z,17.47
2019-02-15T09:31:43.024Z,17.93
2019-02-15T09:34:11.272Z,17.37
2019-02-15T09:36:39.492Z,17.93
2019-02-15T09:39:07.745Z,17.30
2019-02-15T09:41:35.964Z,17.70
2019-02-15T09:44:04.222Z,17.60
2019-02-15T09:46:32.433Z,18.30
2019-02-15T09:49:00.685Z,17.60
2019-02-15T09:51:28.909Z,19.40
2019-02-15T09:53:57.165Z,18.60
2019-02-15T09:56:25.392Z,19.00
2019-02-15T09:58:53.658Z,20.43
2019-02-15T10:01:21.882Z,17.60
2019-02-15T10:03:50.096Z,19.00
2019-02-15T10:06:18.351Z,17.20
2019-02-15T10:08:46.643Z,18.60
2019-02-15T10:11:15.212Z,15.20
2019-02-15T10:13:43.429Z,19.20
2019-02-15T10:16:11.680Z,19.50
2019-02-15T10:18:39.898Z,19.30
2019-02-15T10:21:08.480Z,18.70
2019-02-15T10:23:36.768Z,20.03
2019-02-15T10:26:05.017Z,20.27
2019-02-15T10:28:33.245Z,18.30
2019-02-15T10:31:01.889Z,21.37
2019-02-15T10:33:30.440Z,20.97
2019-02-15T10:35:58.689Z,18.07
2019-02-15T10:38:26.914Z,18.83
2019-02-15T10:40:55.160Z,18.23
2019-02-15T10:43:23.709Z,20.80
2019-02-15T10:45:52.286Z,22.57
2019-02-15T10:48:20.504Z,20.10
2019-02-15T10:50:49.081Z,19.70
2019-02-15T10:53:17.625Z,20.60
2019-02-15T10:55:46.197Z,19.63
2019-02-15T10:58:14.411Z,21.17
2019-02-15T11:00:42.738Z,19.27
2019-02-15T11:03:11.283Z,19.83
2019-02-15T11:05:39.532Z,19.83
2019-02-15T11:08:08.081Z,20.07
2019-02-15T11:10:36.667Z,21.17
2019-02-15T11:13:05.200Z,20.50
2019-02-15T11:15:33.751Z,20.77
2019-02-15T11:18:02.328Z,20.20
2019-02-15T11:20:30.613Z,19.83
2019-02-15T11:22:58.867Z,21.37
2019-02-15T11:25:27.080Z,17.17
2019-02-15T11:27:55.660Z,20.17
2019-02-15T11:30:24.483Z,19.97
2019-02-15T11:32:53.020Z,19.13
2019-02-15T11:35:21.568Z,20.07
2019-02-15T11:37:49.816Z,20.20
2019-02-15T11:40:18.369Z,19.17
2019-02-15T11:42:46.952Z,19.57
2019-02-15T11:45:15.869Z,22.00
2019-02-15T11:47:44.453Z,18.33
2019-02-15T11:50:14.037Z,19.60
2019-02-15T11:52:42.290Z,20.37
2019-02-15T11:55:10.778Z,19.30
2019-02-15T11:57:39.099Z,20.33
2019-02-15T12:00:18.473Z,20.20
2019-02-15T12:02:47.480Z,21.03
2019-02-15T12:05:16.020Z,20.67
2019-02-15T12:07:44.597Z,19.33
2019-02-15T12:10:13.480Z,20.30
2019-02-15T12:12:41.733Z,18.67
2019-02-15T12:15:10.821Z,20.33
2019-02-15T12:17:39.084Z,18.60
2019-02-15T12:20:09.057Z,18.27
2019-02-15T12:22:37.637Z,18.10
2019-02-15T12:25:06.329Z,17.23
2019-02-15T12:27:34.868Z,17.27
2019-02-15T12:30:03.693Z,17.03
2019-02-15T12:32:32.237Z,15.80
2019-02-15T12:35:00.812Z,17.13
2019-02-15T12:37:29.364Z,16.60
2019-02-15T12:39:58.012Z,17.33
2019-02-15T12:42:26.553Z,16.30
2019-02-15T12:44:55.133Z,16.53
2019-02-15T12:47:23.680Z,15.27
2019-02-15T12:49:52.257Z,16.63
2019-02-15T12:52:20.479Z,14.83
2019-02-15T12:54:49.052Z,15.17
2019-02-15T12:57:17.602Z,14.97
2019-02-15T12:59:46.185Z,14.60
2019-02-15T13:02:14.738Z,16.23
2019-02-15T13:04:43.316Z,14.40
2019-02-15T13:07:11.861Z,15.10
2019-02-15T13:09:40.437Z,14.40
2019-02-15T13:12:08.982Z,14.10
2019-02-15T13:14:37.560Z,14.50
2019-02-15T13:17:06.110Z,13.57
2019-02-15T13:19:34.690Z,13.97
2019-02-15T13:22:03.240Z,13.00
2019-02-15T13:24:31.489Z,14.57
2019-02-15T13:27:00.033Z,13.00
2019-02-15T13:29:28.285Z,13.03
2019-02-15T13:31:56.837Z,13.50
2019-02-15T13:34:25.410Z,13.27
2019-02-15T13:36:53.957Z,12.67
2019-02-15T13:39:22.528Z,12.67
2019-02-15T13:41:51.077Z,12.63
2019-02-15T13:44:19.679Z,12.87
2019-02-15T13:46:48.227Z,12.73
2019-02-15T13:49:16.777Z,12.80
2019-02-15T13:51:45.349Z,12.50
2019-02-15T13:54:13.564Z,13.03
2019-02-15T13:56:41.814Z,12.67
2019-02-15T13:59:10.366Z,12.27
2019-02-15T14:01:38.612Z,13.67
2019-02-15T14:04:07.181Z,12.73
2019-02-15T14:06:35.761Z,13.03
2019-02-15T14:09:05.021Z,13.20
2019-02-15T14:11:33.601Z,12.73
2019-02-15T14:14:01.822Z,11.67
2019-02-15T14:16:30.458Z,11.80
2019-02-15T14:18:59.001Z,12.17
2019-02-15T14:21:27.648Z,11.63
2019-02-15T14:23:56.268Z,12.53
2019-02-15T14:26:24.869Z,11.67
2019-02-15T14:28:53.089Z,11.73
2019-02-15T14:31:21.664Z,11.33
2019-02-15T14:33:50.217Z,10.87
2019-02-15T14:36:18.460Z,10.57
2019-02-15T14:38:47.011Z,10.20
2019-02-15T14:41:15.581Z,9.73
2019-02-15T14:43:44.125Z,9.37
2019-02-15T14:46:12.373Z,8.73
2019-02-15T14:48:40.921Z,9.60
2019-02-15T14:51:09.499Z,7.73
2019-02-15T14:53:38.045Z,8.77
2019-02-15T14:56:06.694Z,8.13
2019-02-15T14:58:35.241Z,7.70
2019-02-15T15:01:03.954Z,7.47
2019-02-15T15:03:32.524Z,7.57
2019-02-15T15:06:01.077Z,8.80
2019-02-15T15:08:30.785Z,8.37
2019-02-15T15:10:59.471Z,8.50
2019-02-15T15:13:28.108Z,8.63
2019-02-15T15:15:56.662Z,9.23
2019-02-15T15:18:25.233Z,9.33
2019-02-15T15:20:53.785Z,10.13
2019-02-15T15:23:22.362Z,9.33
2019-02-15T15:25:50.904Z,9.43
2019-02-15T15:28:19.481Z,10.10
2019-02-15T15:30:48.031Z,9.87
2019-02-15T15:33:16.672Z,10.57
2019-02-15T15:35:45.257Z,10.10
2019-02-15T15:38:13.833Z,11.20
2019-02-15T15:40:42.377Z,11.23
2019-02-15T15:43:10.954Z,10.93
2019-02-15T15:45:39.500Z,11.87
2019-02-15T15:48:08.086Z,12.03
2019-02-15T15:50:36.634Z,11.53
2019-02-15T15:53:05.210Z,11.70
2019-02-15T15:55:33.448Z,11.67
2019-02-15T15:58:02.026Z,12.27
2019-02-15T16:00:38.729Z,12.00
2019-02-15T16:03:00.797Z,11.93
2019-02-15T16:05:29.344Z,13.00
2019-02-15T16:07:57.922Z,13.80
2019-02-15T16:10:26.471Z,13.17
2019-02-15T16:12:55.045Z,13.80
2019-02-15T16:15:23.273Z,13.90
2019-02-15T16:17:51.849Z,13.47
2019-02-15T16:20:20.389Z,13.90
2019-02-15T16:22:48.942Z,14.13
2019-02-15T16:25:17.521Z,14.33
2019-02-15T16:27:46.083Z,15.83
2019-02-15T16:30:15.699Z,15.27
2019-02-15T16:32:44.245Z,15.70
2019-02-15T16:35:12.965Z,15.50
2019-02-15T16:37:41.504Z,15.17
2019-02-15T16:40:14.816Z,15.57
2019-02-15T16:42:43.368Z,15.00
2019-02-15T16:45:15.815Z,14.57
2019-02-15T16:47:44.368Z,14.97
2019-02-15T16:50:14.605Z,15.53
2019-02-15T16:52:43.154Z,16.20
2019-02-15T16:55:13.208Z,16.47
2019-02-15T16:57:42.053Z,16.33
2019-02-15T17:00:12.737Z,16.27
2019-02-15T17:02:41.287Z,15.83
2019-02-15T17:05:10.300Z,15.03
2019-02-15T17:07:38.916Z,15.40
2019-02-15T17:10:08.238Z,15.60
2019-02-15T17:12:36.787Z,16.67
2019-02-15T17:15:08.305Z,15.73
2019-02-15T17:17:36.845Z,15.63
2019-02-15T17:20:07.666Z,15.10
2019-02-15T17:22:36.280Z,15.23
2019-02-15T17:25:07.323Z,16.13
2019-02-15T17:27:35.869Z,15.33
2019-02-15T17:30:07.388Z,16.23
2019-02-15T17:32:35.932Z,17.20
2019-02-15T17:35:05.756Z,18.17
2019-02-15T17:37:34.291Z,18.17
2019-02-15T17:40:03.141Z,18.97
2019-02-15T17:42:31.688Z,18.93
2019-02-15T17:45:00.298Z,18.27
2019-02-15T17:47:28.489Z,19.23
2019-02-15T17:49:57.041Z,19.20
2019-02-15T17:52:25.623Z,19.27
2019-02-15T17:54:54.169Z,19.37
2019-02-15T17:57:22.743Z,19.40
2019-02-15T17:59:51.288Z,17.17
2019-02-15T18:02:19.868Z,16.50
2019-02-15T18:04:48.416Z,16.07
2019-02-15T18:07:16.993Z,16.27
2019-02-15T18:09:45.563Z,16.83
2019-02-15T18:12:14.125Z,15.70
2019-02-15T18:14:42.673Z,15.57
2019-02-15T18:17:11.256Z,16.50
2019-02-15T18:19:47.067Z,16.80
2019-02-15T18:22:09.384Z,17.70
2019-02-15T18:24:37.602Z,17.37
2019-02-15T18:27:06.349Z,18.07
2019-02-15T18:29:34.892Z,17.30
2019-02-15T18:32:03.541Z,15.27
2019-02-15T18:34:32.089Z,15.43
2019-02-15T18:37:00.669Z,15.83
2019-02-15T18:39:29.221Z,18.07
2019-02-15T18:41:57.794Z,15.90
2019-02-15T18:44:26.012Z,15.53
2019-02-15T18:46:54.269Z,14.80
2019-02-15T18:49:22.813Z,15.13
2019-02-15T18:51:51.393Z,14.63
2019-02-15T18:54:19.941Z,15.10
2019-02-15T18:56:48.190Z,14.17
2019-02-15T18:59:16.745Z,15.37
2019-02-15T19:01:45.313Z,14.20
2019-02-15T19:04:13.857Z,15.03
2019-02-15T19:06:42.413Z,15.80
2019-02-15T19:09:10.985Z,15.53
2019-02-15T19:11:39.532Z,15.70
2019-02-15T19:14:08.125Z,14.70
2019-02-15T19:16:36.738Z,16.13
2019-02-15T19:19:05.484Z,15.73
2019-02-15T19:21:34.028Z,14.10
2019-02-15T19:24:02.604Z,14.57
2019-02-15T19:26:30.833Z,15.17
2019-02-15T19:28:59.081Z,15.67
2019-02-15T19:31:27.698Z,15.77
2019-02-15T19:33:56.285Z,15.70
2019-02-15T19:36:24.512Z,16.27
2019-02-15T19:38:53.094Z,15.70
2019-02-15T19:41:21.319Z,16.27
2019-02-15T19:43:49.563Z,15.10
2019-02-15T19:46:18.118Z,14.97
2019-02-15T19:48:46.703Z,16.37
2019-02-15T19:51:15.248Z,15.30
2019-02-15T19:53:43.833Z,15.03
2019-02-15T19:56:12.054Z,16.00
2019-02-15T19:58:43.700Z,16.17
2019-02-15T20:01:10.184Z,15.97
2019-02-15T20:03:38.436Z,15.67
2019-02-15T20:06:07.127Z,15.10
2019-02-15T20:08:35.397Z,15.37
2019-02-15T20:11:04.309Z,14.80
2019-02-15T20:13:32.576Z,14.50
2019-02-15T20:16:00.786Z,16.57
2019-02-15T20:18:29.048Z,15.73
2019-02-15T20:20:57.606Z,15.10
2019-02-15T20:23:25.930Z,16.27
2019-02-15T20:25:54.165Z,15.57
2019-02-15T20:28:22.736Z,14.97
2019-02-15T20:30:51.294Z,14.93
2019-02-15T20:33:19.536Z,14.67
2019-02-15T20:35:47.760Z,14.50
2019-02-15T20:38:16.009Z,15.27
2019-02-15T20:40:44.228Z,14.70
2019-02-15T20:43:12.449Z,13.83
2019-02-15T20:45:40.701Z,14.57
2019-02-15T20:48:11.884Z,14.87
2019-02-15T20:50:39.148Z,15.37
2019-02-15T20:53:07.364Z,14.43
2019-02-15T20:55:35.953Z,14.57
2019-02-15T20:58:04.180Z,14.47
2019-02-15T21:00:32.832Z,13.93
2019-02-15T21:03:01.056Z,15.37
2019-02-15T21:05:29.320Z,13.80
2019-02-15T21:07:57.546Z,15.70
2019-02-15T21:10:25.791Z,14.80
2019-02-15T21:12:54.004Z,14.87
2019-02-15T21:15:24.220Z,14.97
2019-02-15T21:17:52.126Z,19.30
2019-02-15T21:20:20.378Z,15.43
2019-02-15T21:22:48.924Z,20.37
2019-02-15T21:25:17.445Z,16.17
2019-02-15T21:27:45.737Z,15.23
2019-02-15T21:30:15.527Z,15.87
2019-02-15T21:32:43.756Z,14.63
2019-02-15T21:35:12.085Z,15.23
2019-02-15T21:37:40.370Z,14.90
2019-02-15T21:40:10.099Z,14.33
2019-02-15T21:42:38.318Z,14.70
2019-02-15T21:45:07.842Z,14.20
2019-02-15T21:47:36.132Z,14.17
2019-02-15T21:50:05.262Z,13.73
2019-02-15T21:52:33.469Z,14.87
2019-02-15T21:55:01.704Z,14.53
2019-02-15T21:57:29.953Z,13.97
2019-02-15T21:59:58.172Z,14.60
2019-02-15T22:02:26.423Z,14.67
2019-02-15T22:04:54.658Z,15.93
2019-02-15T22:07:23.277Z,14.83
2019-02-15T22:09:51.501Z,13.63
2019-02-15T22:12:19.752Z,14.87
2019-02-15T22:14:47.982Z,15.87
2019-02-15T22:17:16.233Z,14.97
2019-02-15T22:19:44.452Z,15.17
2019-02-15T22:22:12.704Z,15.13
2019-02-15T22:24:40.928Z,15.23
2019-02-15T22:27:09.189Z,15.37
2019-02-15T22:29:37.412Z,14.83
2019-02-15T22:32:05.674Z,14.40
2019-02-15T22:34:33.899Z,14.87
2019-02-15T22:37:02.150Z,16.60
2019-02-15T22:39:30.368Z,14.37
2019-02-15T22:41:58.621Z,14.73
2019-02-15T22:44:27.174Z,14.83
2019-02-15T22:46:55.420Z,16.03
2019-02-15T22:49:23.644Z,14.70
2019-02-15T22:51:51.896Z,14.63
2019-02-15T22:54:20.453Z,14.47
2019-02-15T22:56:48.704Z,14.80
2019-02-15T22:59:16.924Z,15.57
2019-02-15T23:01:45.557Z,14.70
2019-02-15T23:04:13.844Z,14.70
2019-02-15T23:06:44.061Z,14.87
2019-02-15T23:09:13.832Z,13.97
2019-02-15T23:11:42.054Z,14.80
2019-02-15T23:14:10.304Z,15.97
2019-02-15T23:16:38.528Z,14.13
2019-02-15T23:19:06.788Z,14.57
2019-02-15T23:21:35.009Z,15.63
2019-02-15T23:24:03.640Z,14.93
2019-02-15T23:26:31.819Z,15.23
2019-02-15T23:29:00.073Z,15.00
2019-02-15T23:31:28.301Z,13.93
2019-02-15T23:33:56.552Z,14.03
2019-02-15T23:36:24.776Z,16.03
2019-02-15T23:38:53.030Z,15.87
2019-02-15T23:41:21.252Z,14.47
2019-02-15T23:43:49.500Z,15.07
2019-02-15T23:46:17.729Z,14.73
2019-02-15T23:48:45.973Z,14.60
2019-02-15T23:51:14.198Z,15.93
2019-02-15T23:53:42.448Z,15.37
2019-02-15T23:56:10.672Z,15.13
2019-02-15T23:58:39.805Z,13.63
